Time;durP1;ratioP1;P1;durP2;ratioP2;P2;SDS_P1;SDS_P2;PMS_P1;PMS_P2;Temp;Humidity;BMP_temperature;BMP_pressure;BME280_temperature;BME280_humidity;BME280_pressure;Samples;Min_cycle;Max_cycle;Signal;HPM_P1;HPM_P2
2022/05/16 00:01:52;;;;;;;;;8.00;5.75;;;;;21.07;55.10;100634.25;5034394;28;45533;-48
2022/05/16 00:04:17;;;;;;;;;6.50;6.00;;;;;21.05;55.07;100629.03;5032070;28;45512;-47
2022/05/16 00:06:43;;;;;;;;;10.50;5.25;;;;;21.05;54.70;100634.34;5017655;28;66739;-47
2022/05/16 00:09:08;;;;;;;;;6.00;6.00;;;;;21.08;54.85;100643.06;5028963;28;48999;-49
2022/05/16 00:11:34;;;;;;;;;10.00;6.25;;;;;21.08;54.61;100654.53;5023679;28;45429;-48
2022/05/16 00:14:00;;;;;;;;;7.75;5.50;;;;;21.10;54.97;100679.22;5032241;28;45310;-47
2022/05/16 00:16:25;;;;;;;;;8.25;4.50;;;;;21.10;60.17;100689.03;5035330;28;46005;-48
2022/05/16 00:18:51;;;;;;;;;7.75;4.75;;;;;20.84;62.63;100692.59;5021671;28;45376;-46
2022/05/16 00:21:17;;;;;;;;;10.50;6.25;;;;;20.65;63.42;100711.66;5020500;28;45454;-47
2022/05/16 00:23:42;;;;;;;;;9.00;6.00;;;;;20.41;64.02;100670.78;5029791;28;45300;-48
2022/05/16 00:26:07;;;;;;;;;6.25;6.00;;;;;20.14;66.48;100642.50;5027705;28;69854;-48
2022/05/16 00:28:33;;;;;;;;;12.25;9.50;;;;;19.85;66.86;100624.09;5024701;28;64489;-48
2022/05/16 00:30:58;;;;;;;;;4.00;4.00;;;;;19.62;67.46;100611.47;5022138;28;58929;-47
2022/05/16 00:33:23;;;;;;;;;5.75;5.00;;;;;19.44;68.11;100606.47;5022691;28;65696;-50
2022/05/16 00:35:49;;;;;;;;;8.00;5.75;;;;;19.31;67.41;100614.38;5026583;28;68231;-47
2022/05/16 00:38:14;;;;;;;;;6.50;4.00;;;;;19.17;67.58;100622.38;5036590;28;45383;-47
2022/05/16 00:40:40;;;;;;;;;7.75;5.50;;;;;19.16;68.61;100655.19;5023338;28;63529;-47
2022/05/16 00:43:08;;;;;;;;;5.50;4.00;;;;;19.19;68.54;100654.13;5026961;28;51776;-47
2022/05/16 00:45:34;;;;;;;;;6.25;6.25;;;;;19.24;68.72;100638.75;5030036;28;45382;-46
2022/05/16 00:48:00;;;;;;;;;7.75;5.25;;;;;19.26;68.01;100626.22;5037680;28;65579;-47
2022/05/16 00:50:26;;;;;;;;;7.25;4.50;;;;;19.28;68.77;100635.81;5029255;28;59625;-46
2022/05/16 00:52:52;;;;;;;;;6.25;5.50;;;;;19.33;68.00;100638.16;5034766;28;45462;-47
2022/05/16 00:55:30;;;;;;;;;5.75;5.75;;;;;19.37;68.36;100633.50;5025365;28;46097;-47
2022/05/16 00:57:58;;;;;;;;;11.50;8.00;;;;;19.38;66.50;100629.91;5025871;28;45364;-48
2022/05/16 01:00:26;;;;;;;;;9.50;6.00;;;;;19.38;66.87;100630.75;5031008;28;45464;-47
2022/05/16 01:05:41;;;;;;;;;4.75;4.75;;;;;19.33;67.18;100620.41;5026057;28;45561;-46
2022/05/16 01:08:10;;;;;;;;;10.00;5.25;;;;;19.30;66.49;100610.03;5038913;28;45495;-46
2022/05/16 01:10:36;;;;;;;;;7.25;6.25;;;;;19.31;66.36;100610.88;5032725;28;45389;-47
2022/05/16 01:13:03;;;;;;;;;10.50;8.25;;;;;19.31;66.72;100616.16;5035071;28;45525;-46
2022/05/16 01:15:44;;;;;;;;;6.25;4.25;;;;;19.37;66.03;100613.13;5031019;28;47137;-47
2022/05/16 01:18:11;;;;;;;;;8.25;5.25;;;;;19.45;65.84;100609.97;5031507;28;45634;-46
2022/05/16 01:21:06;;;;;;;;;6.75;4.50;;;;;19.47;65.70;100619.50;5038329;28;45264;-47
2022/05/16 01:23:34;;;;;;;;;7.00;4.00;;;;;19.52;65.12;100620.06;5030443;28;45732;-47
2022/05/16 01:26:01;;;;;;;;;6.50;4.00;;;;;19.57;63.74;100614.47;5029803;28;45560;-47
2022/05/16 01:28:26;;;;;;;;;7.25;4.25;;;;;19.61;64.43;100623.06;5030480;28;46040;-45
2022/05/16 01:30:54;;;;;;;;;6.25;5.75;;;;;19.66;64.07;100620.97;5027465;28;64463;-47
2022/05/16 01:33:22;;;;;;;;;6.25;5.50;;;;;19.70;63.75;100622.44;5033398;28;45712;-46
2022/05/16 01:35:48;;;;;;;;;7.25;7.00;;;;;19.71;63.02;100621.50;5036146;28;47068;-47
2022/05/16 01:38:22;;;;;;;;;5.25;5.00;;;;;19.67;63.43;100614.66;5030562;28;45415;-50
2022/05/16 01:41:00;;;;;;;;;7.50;6.25;;;;;19.70;63.37;100630.41;5033746;28;45308;-47
2022/05/16 01:43:40;;;;;;;;;7.00;5.25;;;;;19.72;62.97;100631.16;5030444;28;45470;-46
2022/05/16 01:46:07;;;;;;;;;5.75;4.00;;;;;19.76;63.03;100645.97;5036302;28;46171;-48
2022/05/16 01:48:33;;;;;;;;;6.00;5.00;;;;;19.75;63.05;100646.06;5032412;28;45171;-46
2022/05/16 01:51:00;;;;;;;;;6.25;5.50;;;;;19.80;62.89;100636.84;5028811;28;46059;-46
2022/05/16 01:53:26;;;;;;;;;5.75;4.50;;;;;19.79;62.42;100627.16;5033996;28;45738;-45
2022/05/16 01:55:51;;;;;;;;;4.25;4.25;;;;;19.82;62.19;100644.72;5028831;28;46026;-47
2022/05/16 01:58:17;;;;;;;;;7.00;5.25;;;;;19.83;62.07;100633.13;5035583;28;62624;-46
2022/05/16 02:00:42;;;;;;;;;8.00;5.00;;;;;19.84;62.07;100640.13;5031981;28;62524;-46
2022/05/16 02:03:08;;;;;;;;;6.25;4.50;;;;;19.87;61.77;100638.13;5028557;28;45250;-47
2022/05/16 02:05:34;;;;;;;;;5.25;4.50;;;;;19.87;61.77;100648.75;5032219;28;46137;-46
2022/05/16 02:08:00;;;;;;;;;6.00;3.50;;;;;19.84;61.99;100640.13;5031374;28;45967;-47
2022/05/16 02:10:26;;;;;;;;;7.00;5.25;;;;;19.84;61.94;100643.63;5027131;28;45526;-46
2022/05/16 02:12:52;;;;;;;;;7.50;6.00;;;;;19.84;61.78;100654.25;5029131;28;45454;-46
2022/05/16 02:15:21;;;;;;;;;9.25;9.00;;;;;19.85;61.81;100653.31;5030846;28;46184;-46
2022/05/16 02:17:46;;;;;;;;;7.50;5.75;;;;;19.85;61.97;100652.47;5026617;28;45833;-48
2022/05/16 02:20:12;;;;;;;;;5.50;5.50;;;;;19.86;61.82;100638.22;5025194;28;46127;-47
2022/05/16 02:25:22;;;;;;;;;7.25;6.00;;;;;19.85;61.84;100637.38;5032318;28;45503;-50
2022/05/16 02:27:51;;;;;;;;;8.00;6.50;;;;;19.86;61.47;100648.84;5024163;28;66723;-49
2022/05/16 02:30:17;;;;;;;;;7.75;6.75;;;;;19.88;61.61;100638.97;5032329;28;45495;-48
2022/05/16 02:32:43;;;;;;;;;9.25;7.75;;;;;19.88;61.80;100637.19;5035085;28;45356;-49
2022/05/16 02:35:09;;;;;;;;;9.25;6.00;;;;;19.88;61.61;100660.22;5036555;28;70828;-50
2022/05/16 02:37:34;;;;;;;;;11.50;8.50;;;;;19.87;61.79;100650.56;5031498;28;45554;-50
2022/05/16 02:40:00;;;;;;;;;8.25;8.25;;;;;19.88;61.29;100655.78;5031535;28;45466;-47
2022/05/16 02:42:25;;;;;;;;;8.00;8.00;;;;;19.87;61.59;100658.53;5030336;28;45501;-48
2022/05/16 02:44:53;;;;;;;;;9.25;7.00;;;;;19.85;62.01;100655.97;5023982;28;45224;-51
2022/05/16 02:47:22;;;;;;;;;10.75;8.75;;;;;19.84;61.48;100661.38;5028004;28;45371;-49
2022/05/16 02:49:47;;;;;;;;;7.00;6.00;;;;;19.82;61.86;100658.81;5032836;28;45582;-50
2022/05/16 02:52:13;;;;;;;;;9.00;8.00;;;;;19.82;61.42;100664.13;5033258;28;45205;-51
2022/05/16 02:54:39;;;;;;;;;8.00;7.00;;;;;19.83;61.44;100670.28;5024342;28;48914;-48
2022/05/16 02:57:05;;;;;;;;;7.25;6.50;;;;;19.82;60.99;100668.59;5028041;28;45305;-49
2022/05/16 02:59:32;;;;;;;;;10.00;7.25;;;;;19.82;61.30;100672.09;5032183;28;45504;-50
2022/05/16 03:02:02;;;;;;;;;10.00;10.00;;;;;19.82;60.85;100664.13;5030949;28;45533;-50
2022/05/16 03:04:28;;;;;;;;;15.25;10.75;;;;;19.83;61.17;100667.63;5023870;28;45471;-48
2022/05/16 03:06:54;;;;;;;;;11.75;8.00;;;;;19.79;61.75;100656.38;5030010;28;45399;-47
2022/05/16 03:09:21;;;;;;;;;12.00;10.00;;;;;19.79;61.61;100664.34;5027476;28;46040;-50
2022/05/16 03:11:46;;;;;;;;;11.00;9.00;;;;;19.80;61.59;100663.41;5024876;28;45411;-50
2022/05/16 03:14:12;;;;;;;;;15.00;10.00;;;;;19.81;61.63;100661.59;5027303;28;69047;-49
2022/05/16 03:16:38;;;;;;;;;11.50;10.25;;;;;19.81;61.42;100665.06;5024876;28;68183;-50
2022/05/16 03:19:04;;;;;;;;;7.75;7.75;;;;;19.81;61.52;100670.38;5030460;28;45419;-49
2022/05/16 03:21:30;;;;;;;;;10.00;10.00;;;;;19.81;61.37;100681.00;5034253;28;45606;-50
2022/05/16 03:23:56;;;;;;;;;10.50;8.00;;;;;19.81;61.51;100688.13;5027805;28;45463;-47
2022/05/16 03:26:21;;;;;;;;;12.50;10.00;;;;;19.79;61.23;100690.88;5030567;28;45227;-50
2022/05/16 03:28:46;;;;;;;;;15.00;10.50;;;;;19.79;61.14;100696.19;5027053;28;61121;-47
2022/05/16 03:31:12;;;;;;;;;12.25;10.25;;;;;19.77;61.06;100698.13;5029319;28;58244;-46
2022/05/16 03:33:37;;;;;;;;;16.50;12.50;;;;;19.77;61.12;100691.97;5026116;28;68019;-47
2022/05/16 03:36:03;;;;;;;;;8.00;7.50;;;;;19.73;61.97;100697.47;5023759;28;45344;-47
2022/05/16 03:41:13;;;;;;;;;14.75;11.25;;;;;19.68;61.50;100696.88;5034580;28;45379;-49
2022/05/16 03:43:39;;;;;;;;;19.25;11.25;;;;;19.68;61.24;100694.22;5025936;28;65437;-46
2022/05/16 03:46:05;;;;;;;;;13.50;10.75;;;;;19.69;61.47;100693.28;5029955;28;45965;-48
2022/05/16 03:48:32;;;;;;;;;12.25;11.25;;;;;19.66;61.51;100693.47;5028328;28;45443;-47
2022/05/16 03:50:57;;;;;;;;;14.00;11.25;;;;;19.65;61.57;100705.03;5028704;28;47104;-49
2022/05/16 03:53:23;;;;;;;;;13.00;11.50;;;;;19.60;61.75;100703.66;5025759;28;45523;-46
2022/05/16 03:55:48;;;;;;;;;16.00;11.00;;;;;19.61;61.68;100714.16;5026388;28;58680;-47
2022/05/16 03:58:13;;;;;;;;;16.00;12.25;;;;;19.58;62.09;100714.34;5034630;28;61083;-47
2022/05/16 04:00:40;;;;;;;;;14.00;11.25;;;;;19.57;61.65;100719.78;5033238;28;68130;-47
2022/05/16 04:03:05;;;;;;;;;12.00;11.00;;;;;19.55;61.72;100727.84;5031335;28;45608;-50
2022/05/16 04:05:31;;;;;;;;;14.75;10.75;;;;;19.54;62.54;100732.28;5036606;28;49809;-48
2022/05/16 04:07:56;;;;;;;;;17.00;11.00;;;;;19.53;61.80;100727.94;5024354;28;57211;-46
2022/05/16 04:10:23;;;;;;;;;17.25;13.00;;;;;19.54;62.00;100729.63;5030022;28;45247;-47
2022/05/16 04:12:48;;;;;;;;;13.50;11.50;;;;;19.55;62.12;100727.84;5031299;28;46056;-49
2022/05/16 04:15:14;;;;;;;;;17.50;12.00;;;;;19.56;61.90;100732.19;5029992;28;61880;-48
2022/05/16 04:17:40;;;;;;;;;13.00;12.50;;;;;19.54;61.61;100731.44;5034653;28;45466;-48
2022/05/16 04:20:06;;;;;;;;;15.00;12.50;;;;;19.58;62.04;100742.72;5034970;28;45314;-47
2022/05/16 04:22:32;;;;;;;;;15.25;15.00;;;;;19.61;62.00;100748.69;5028914;28;46164;-47
2022/05/16 04:24:57;;;;;;;;;15.25;13.50;;;;;19.63;62.05;100753.91;5034295;28;63192;-47
2022/05/16 04:27:23;;;;;;;;;13.75;13.25;;;;;19.62;62.01;100762.78;5024731;28;45494;-50
2022/05/16 04:29:48;;;;;;;;;14.75;12.25;;;;;19.65;61.71;100771.41;5029565;28;63515;-49
2022/05/16 04:32:13;;;;;;;;;14.25;12.25;;;;;19.66;61.60;100775.78;5030749;28;46158;-47
2022/05/16 04:34:39;;;;;;;;;14.25;12.50;;;;;19.66;61.55;100765.16;5025422;28;66643;-48
2022/05/16 04:37:04;;;;;;;;;17.50;15.25;;;;;19.68;61.84;100770.38;5028077;28;45421;-48
2022/05/16 04:39:29;;;;;;;;;14.50;13.50;;;;;19.67;61.46;100769.53;5031052;28;59379;-48
2022/05/16 04:44:39;;;;;;;;;16.00;13.75;;;;;19.73;61.63;100792.19;5030106;28;45329;-47
2022/05/16 04:47:06;;;;;;;;;14.25;14.00;;;;;19.72;61.70;100801.97;5035744;28;45439;-50
2022/05/16 04:49:32;;;;;;;;;18.75;15.75;;;;;19.70;61.61;100803.84;5038962;28;45416;-48
2022/05/16 04:51:58;;;;;;;;;17.75;14.75;;;;;19.70;61.78;100821.56;5037655;28;45985;-50
2022/05/16 04:54:23;;;;;;;;;16.00;12.50;;;;;19.70;61.55;100821.56;5027781;28;45682;-49
2022/05/16 04:56:51;;;;;;;;;18.25;15.50;;;;;19.70;61.64;100833.03;5037068;28;45515;-49
2022/05/16 04:59:17;;;;;;;;;20.00;15.75;;;;;19.72;61.77;100836.47;5037820;28;45587;-48
2022/05/16 05:01:42;;;;;;;;;18.50;14.75;;;;;19.73;61.67;100851.47;5032271;28;45526;-49
2022/05/16 05:04:07;;;;;;;;;16.75;15.00;;;;;19.72;61.34;100855.06;5031093;28;45471;-51
2022/05/16 05:06:34;;;;;;;;;16.50;15.75;;;;;19.72;61.94;100865.69;5030178;28;64534;-47
2022/05/16 05:08:59;;;;;;;;;21.50;16.75;;;;;19.71;61.60;100874.59;5030897;28;45328;-50
2022/05/16 05:16:52;;;;;;;;;20.50;16.75;;;;;19.70;61.55;100870.22;5034436;28;45325;-47
2022/05/16 05:19:18;;;;;;;;;17.75;16.75;;;;;19.71;61.42;100873.75;5029408;28;66914;-50
2022/05/16 05:21:43;;;;;;;;;19.00;17.50;;;;;19.76;61.79;100873.47;5030990;28;50752;-47
2022/05/16 05:24:09;;;;;;;;;18.75;15.75;;;;;19.77;61.43;100873.38;5027441;28;45340;-49
2022/05/16 05:26:36;;;;;;;;;14.75;13.00;;;;;19.78;61.29;100875.09;5028652;28;46856;-48
2022/05/16 05:29:01;;;;;;;;;17.50;17.25;;;;;19.81;61.24;100874.03;5037289;28;45704;-49
2022/05/16 05:31:26;;;;;;;;;20.00;16.00;;;;;19.82;61.32;100878.41;5029143;28;68024;-48
2022/05/16 05:33:55;;;;;;;;;15.50;13.50;;;;;19.82;61.40;100881.91;5023353;28;45487;-47
2022/05/16 05:36:21;;;;;;;;;17.50;17.00;;;;;19.82;61.02;100889.03;5034268;28;45479;-48
2022/05/16 05:38:51;;;;;;;;;15.50;15.50;;;;;19.83;61.21;100899.56;5032810;28;45320;-47
2022/05/16 05:41:18;;;;;;;;;18.00;16.00;;;;;19.84;60.95;100901.25;5022863;28;46993;-49
2022/05/16 05:43:43;;;;;;;;;16.75;12.75;;;;;19.84;60.38;100901.25;5032242;28;45227;-48
2022/05/16 05:46:08;;;;;;;;;15.75;14.00;;;;;19.82;60.42;100911.13;5028665;28;65674;-47
2022/05/16 05:48:34;;;;;;;;;21.25;13.75;;;;;19.83;60.43;100915.50;5030838;28;64405;-52
2022/05/16 05:50:59;;;;;;;;;21.50;17.00;;;;;19.85;60.26;100924.22;5024902;28;45941;-46
2022/05/16 05:53:25;;;;;;;;;16.50;14.00;;;;;19.90;60.03;100938.06;5026922;28;45607;-47
2022/05/16 05:55:50;;;;;;;;;12.75;12.50;;;;;19.90;60.00;100935.41;5032787;28;45282;-45
2022/05/16 05:58:16;;;;;;;;;16.00;15.75;;;;;20.01;59.72;100939.16;5031619;28;45463;-48
2022/05/16 06:00:43;;;;;;;;;13.50;13.00;;;;;20.03;59.40;100942.59;5029088;28;45533;-47
2022/05/16 06:03:08;;;;;;;;;14.75;14.25;;;;;20.09;59.26;100961.63;5037967;28;45783;-46
2022/05/16 06:05:34;;;;;;;;;20.50;15.00;;;;;20.11;59.62;100961.53;5033298;28;51255;-46
2022/05/16 06:08:00;;;;;;;;;19.50;15.75;;;;;20.15;59.55;100967.50;5026736;28;46211;-47
2022/05/16 06:10:25;;;;;;;;;17.25;14.75;;;;;20.17;59.48;100965.59;5025369;28;70278;-46
2022/05/16 06:12:51;;;;;;;;;14.00;13.25;;;;;20.17;59.25;100970.91;5029454;28;45425;-46
2022/05/16 06:15:17;;;;;;;;;18.00;15.00;;;;;20.15;59.14;100972.81;5032291;28;45268;-51
2022/05/16 06:17:43;;;;;;;;;17.50;15.50;;;;;20.12;58.98;100973.88;5031060;28;45383;-50
2022/05/16 06:20:10;;;;;;;;;17.50;16.00;;;;;20.17;59.29;100990.41;5029088;28;45525;-51
2022/05/16 06:22:36;;;;;;;;;16.25;15.50;;;;;20.21;59.18;100991.91;5035990;28;45716;-53
2022/05/16 06:27:53;;;;;;;;;17.75;15.25;;;;;20.23;58.56;100987.34;5030273;28;45643;-49
2022/05/16 06:30:19;;;;;;;;;20.25;15.00;;;;;20.20;58.12;100995.53;5034972;28;45423;-51
2022/05/16 06:32:46;;;;;;;;;16.75;13.50;;;;;20.16;58.05;100999.31;5037394;28;46198;-50
2022/05/16 06:35:11;;;;;;;;;19.00;16.50;;;;;20.14;57.96;101006.53;5027539;28;45558;-48
2022/05/16 06:37:37;;;;;;;;;17.25;15.00;;;;;20.13;58.31;101006.63;5028999;28;45439;-51
2022/05/16 06:40:04;;;;;;;;;17.50;14.50;;;;;20.11;58.08;101009.38;5033563;28;46305;-50
2022/05/16 06:42:29;;;;;;;;;14.25;13.25;;;;;20.07;58.00;101002.56;5026415;28;45596;-51
2022/05/16 06:44:55;;;;;;;;;20.25;15.25;;;;;20.08;57.94;101021.06;5025064;28;58498;-48
2022/05/16 06:47:21;;;;;;;;;17.75;15.75;;;;;20.13;57.86;101020.75;5027955;28;45385;-49
2022/05/16 06:49:46;;;;;;;;;14.50;12.75;;;;;20.16;57.34;101020.56;5030131;28;66875;-48
2022/05/16 06:52:11;;;;;;;;;15.00;13.50;;;;;20.17;57.68;101027.59;5028055;28;45348;-52
2022/05/16 06:54:37;;;;;;;;;20.25;13.50;;;;;20.17;57.61;101032.03;5030293;28;51113;-53
2022/05/16 06:57:03;;;;;;;;;16.25;13.00;;;;;20.16;57.38;101039.16;5025903;28;45657;-52
2022/05/16 06:59:28;;;;;;;;;14.25;12.50;;;;;20.17;57.37;101043.53;5032772;28;45450;-52
2022/05/16 07:01:54;;;;;;;;;12.00;9.75;;;;;20.13;57.01;101044.66;5028594;28;45158;-52
2022/05/16 07:04:19;;;;;;;;;12.25;11.75;;;;;20.13;56.91;101049.13;5036093;28;63270;-50
2022/05/16 07:06:44;;;;;;;;;14.00;10.50;;;;;20.13;56.74;101070.38;5038083;28;45653;-52
2022/05/16 07:09:10;;;;;;;;;13.25;11.00;;;;;20.06;56.72;101069.91;5039885;28;45393;-52
2022/05/16 07:11:35;;;;;;;;;13.75;12.00;;;;;20.04;56.54;101071.81;5039448;28;45245;-52
2022/05/16 07:14:00;;;;;;;;;13.00;11.50;;;;;20.06;56.79;101080.53;5038240;28;54695;-52
2022/05/16 07:16:26;;;;;;;;;10.75;10.75;;;;;20.07;56.78;101077.78;5033017;28;49398;-50
2022/05/16 07:18:51;;;;;;;;;15.75;14.25;;;;;20.15;56.71;101087.09;5021654;28;68639;-53
2022/05/16 07:21:17;;;;;;;;;16.00;12.00;;;;;20.21;56.29;101092.03;5037016;28;45506;-53
2022/05/16 07:23:42;;;;;;;;;9.50;8.75;;;;;20.26;56.08;101092.63;5030959;28;45813;-52
2022/05/16 07:28:51;;;;;;;;;11.50;11.00;;;;;20.28;55.81;101104.84;5036360;28;45442;-52
2022/05/16 07:31:17;;;;;;;;;13.50;10.75;;;;;20.32;55.75;101105.50;5034609;28;64800;-51
2022/05/16 07:33:42;;;;;;;;;13.25;9.75;;;;;20.33;55.49;101104.56;5031418;28;65774;-53
2022/05/16 07:36:08;;;;;;;;;11.75;11.00;;;;;20.36;55.40;101106.16;5031926;28;45269;-52
2022/05/16 07:38:33;;;;;;;;;7.75;5.50;;;;;20.38;55.10;101113.13;5027400;28;47012;-51
2022/05/16 07:40:59;;;;;;;;;13.25;9.50;;;;;20.39;54.72;101108.66;5027499;28;45385;-51
2022/05/16 07:43:25;;;;;;;;;16.25;11.00;;;;;20.49;54.64;101109.78;5026465;28;45550;-52
2022/05/16 07:45:51;;;;;;;;;9.25;9.25;;;;;20.58;54.73;101119.84;5023659;28;45396;-49
2022/05/16 07:48:16;;;;;;;;;9.00;7.50;;;;;20.67;54.39;101123.75;5025608;28;45332;-52
2022/05/16 07:50:43;;;;;;;;;9.75;8.25;;;;;20.72;53.88;101131.44;5019579;28;60715;-52
2022/05/16 07:53:13;;;;;;;;;8.00;8.00;;;;;20.72;53.89;101119.00;5022429;28;45362;-52
2022/05/16 07:55:41;;;;;;;;;13.00;9.00;;;;;20.76;53.90;101123.16;5019556;28;45419;-50
2022/05/16 07:58:07;;;;;;;;;12.50;12.00;;;;;20.81;53.45;101123.72;5022217;28;46185;-52
2022/05/16 08:00:32;;;;;;;;;7.25;7.25;;;;;20.81;52.73;101128.19;5035737;28;45387;-52
2022/05/16 08:02:58;;;;;;;;;9.25;8.00;;;;;20.80;52.95;101129.97;5032368;28;45163;-52
2022/05/16 08:05:24;;;;;;;;;12.00;9.25;;;;;20.81;52.97;101123.72;5041189;28;45291;-52
2022/05/16 08:10:34;;;;;;;;;10.50;8.25;;;;;20.82;52.78;101133.44;5028822;28;45362;-52
2022/05/16 08:13:06;;;;;;;;;11.00;9.00;;;;;20.83;52.90;101139.59;5026468;28;45529;-52
2022/05/16 08:15:33;;;;;;;;;11.00;9.00;;;;;20.88;52.20;101134.00;5034897;28;45448;-50
2022/05/16 08:17:58;;;;;;;;;8.50;8.00;;;;;20.93;52.54;101146.03;5024901;28;45344;-52
2022/05/16 08:20:25;;;;;;;;;8.75;7.75;;;;;20.96;52.22;101148.47;5034229;28;45292;-53
2022/05/16 08:22:51;;;;;;;;;8.50;7.00;;;;;20.97;52.00;101141.38;5031525;28;45247;-50
2022/05/16 08:25:17;;;;;;;;;9.25;7.25;;;;;21.01;52.01;101135.72;5032353;28;56468;-52
2022/05/16 08:27:42;;;;;;;;;11.25;10.25;;;;;21.15;52.06;101153.47;5035338;28;46119;-52
2022/05/16 08:30:08;;;;;;;;;10.75;8.00;;;;;21.25;51.80;101151.09;5030248;28;65641;-53
2022/05/16 08:32:34;;;;;;;;;14.75;10.00;;;;;21.31;52.02;101147.16;5035708;28;45422;-52
2022/05/16 08:35:02;;;;;;;;;7.25;7.00;;;;;21.37;51.37;101157.38;5033915;28;66927;-52
2022/05/16 08:40:12;;;;;;;;;8.00;8.00;;;;;21.39;50.95;101160.84;5037693;28;45750;-50
2022/05/16 08:43:12;;;;;;;;;9.00;6.75;;;;;21.40;50.74;101163.38;5041002;28;45243;-49
2022/05/16 08:45:40;;;;;;;;;11.25;7.75;;;;;21.48;51.25;101167.38;5022799;28;45474;-52
2022/05/16 08:48:20;;;;;;;;;8.00;8.00;;;;;21.56;51.24;101171.22;5036937;28;46104;-52
2022/05/16 08:51:03;;;;;;;;;11.25;8.25;;;;;21.69;50.49;101170.41;5037265;28;45162;-52
2022/05/16 08:53:51;;;;;;;;;8.75;6.25;;;;;21.85;50.76;101173.78;5023961;28;45280;-51
2022/05/16 08:56:22;;;;;;;;;4.25;4.25;;;;;21.99;49.33;101167.47;5033203;28;45376;-49
2022/05/16 08:59:01;;;;;;;;;7.75;7.50;;;;;22.07;49.57;101180.31;5023898;28;45292;-52
2022/05/16 09:01:49;;;;;;;;;8.75;5.75;;;;;22.08;48.85;101177.53;5032403;28;45448;-52
2022/05/16 09:04:37;;;;;;;;;8.50;6.75;;;;;22.09;48.33;101176.56;5033228;28;45372;-51
2022/05/16 09:07:15;;;;;;;;;11.50;9.00;;;;;22.04;49.13;101186.69;5025273;28;45347;-53
2022/05/16 09:09:50;;;;;;;;;9.00;6.50;;;;;21.99;49.64;101183.47;5038678;28;45464;-52
2022/05/16 09:12:21;;;;;;;;;0.00;0.00;;;;;21.93;49.52;101194.56;5038224;28;45572;-49
2022/05/16 09:15:04;;;;;;;;;6.50;6.50;;;;;21.83;49.50;101204.97;5037584;28;45585;-52
2022/05/16 09:17:42;;;;;;;;;12.25;8.50;;;;;21.75;49.83;101212.66;5036066;28;45463;-52
2022/05/16 09:20:17;;;;;;;;;13.00;9.00;;;;;21.66;50.19;101206.13;5037670;28;46424;-52
2022/05/16 09:22:51;;;;;;;;;8.25;8.00;;;;;21.65;49.83;101207.06;5040409;28;45807;-52
2022/05/16 09:25:27;;;;;;;;;7.75;7.00;;;;;21.62;49.62;101209.94;5041685;28;45257;-52
2022/05/16 09:30:43;;;;;;;;;9.25;7.00;;;;;21.59;49.27;101212.81;5034990;28;45885;-53
2022/05/16 09:33:13;;;;;;;;;8.00;8.00;;;;;21.55;50.23;101220.16;5027932;28;45322;-53
2022/05/16 09:35:47;;;;;;;;;9.00;8.50;;;;;21.57;49.51;101223.56;5025662;28;45296;-52
2022/05/16 09:38:13;;;;;;;;;11.75;8.50;;;;;21.59;49.71;101216.31;5033771;28;45344;-52
2022/05/16 09:40:41;;;;;;;;;8.75;8.00;;;;;21.70;49.74;101222.75;5032488;28;46173;-52
2022/05/16 09:43:20;;;;;;;;;9.50;9.25;;;;;22.18;49.57;101231.91;5034431;28;45635;-52
2022/05/16 09:45:50;;;;;;;;;13.25;8.25;;;;;22.90;48.84;101228.75;5029582;28;45459;-53
2022/05/16 09:48:18;;;;;;;;;14.00;7.50;;;;;23.48;48.09;101218.38;5033106;28;45246;-53
2022/05/16 09:50:55;;;;;;;;;13.50;8.25;;;;;25.17;46.57;101219.69;5036926;28;45458;-52
2022/05/16 09:53:28;;;;;;;;;9.00;7.75;;;;;27.14;44.19;101237.06;5036982;28;45510;-53
2022/05/16 09:55:58;;;;;;;;;11.50;9.00;;;;;28.35;41.38;101239.41;5036916;28;45332;-52
2022/05/16 09:58:29;;;;;;;;;8.50;8.00;;;;;30.14;39.82;101239.97;5036923;28;45280;-53
2022/05/16 10:00:58;;;;;;;;;12.50;6.75;;;;;31.82;36.69;101246.63;5031398;28;46307;-54
2022/05/16 10:03:24;;;;;;;;;9.00;7.00;;;;;31.69;34.54;101234.44;5041037;28;45301;-54
2022/05/16 10:05:51;;;;;;;;;11.00;9.00;;;;;32.11;35.55;101238.88;5028652;28;45230;-53
2022/05/16 10:08:46;;;;;;;;;7.25;7.25;;;;;33.18;33.85;101230.44;5030789;28;45458;-54
2022/05/16 10:11:16;;;;;;;;;10.00;8.75;;;;;34.16;33.00;101236.19;5018819;28;46651;-54
2022/05/16 10:13:41;;;;;;;;;8.50;7.00;;;;;34.63;32.53;101243.19;5023211;28;45341;-53
2022/05/16 10:16:09;;;;;;;;;16.00;11.00;;;;;35.45;32.25;101242.16;5041126;28;45411;-55
2022/05/16 10:18:42;;;;;;;;;9.75;8.00;;;;;35.61;29.68;101245.63;5029008;28;45325;-55
2022/05/16 10:21:16;;;;;;;;;12.75;8.00;;;;;35.38;30.10;101259.44;5035377;28;48236;-54
2022/05/16 10:23:43;;;;;;;;;8.75;6.00;;;;;34.74;29.24;101250.03;5037252;28;45407;-55
2022/05/16 10:26:13;;;;;;;;;11.75;11.50;;;;;33.61;32.24;101257.16;5036306;28;45315;-55
2022/05/16 10:28:46;;;;;;;;;7.50;5.00;;;;;32.65;31.39;101246.44;5036085;28;45357;-55
2022/05/16 10:34:13;;;;;;;;;9.00;7.50;;;;;31.50;31.59;101251.88;5030605;28;45247;-54
2022/05/16 10:36:39;;;;;;;;;8.25;7.50;;;;;31.34;33.11;101259.88;5031708;28;45449;-54
2022/05/16 10:39:16;;;;;;;;;8.00;7.00;;;;;31.84;31.56;101252.72;5020403;28;45242;-54
2022/05/16 10:42:03;;;;;;;;;8.25;7.25;;;;;32.81;31.58;101245.53;5035398;28;46277;-54
2022/05/16 10:44:48;;;;;;;;;7.50;5.25;;;;;33.64;29.96;101254.94;5026295;28;45739;-54
2022/05/16 10:47:36;;;;;;;;;7.00;5.50;;;;;33.36;29.29;101257.31;5039113;28;45304;-55
2022/05/16 10:50:25;;;;;;;;;7.00;5.50;;;;;32.89;29.51;101244.63;5021557;28;45396;-54
2022/05/16 10:52:56;;;;;;;;;7.50;5.75;;;;;32.14;30.62;101252.09;5032293;28;45200;-56
2022/05/16 10:55:21;;;;;;;;;7.00;7.00;;;;;32.58;30.47;101245.41;5025041;28;45453;-54
2022/05/16 10:58:39;;;;;;;;;6.00;5.25;;;;;32.64;29.38;101238.47;5034917;28;45482;-54
2022/05/16 11:01:31;;;;;;;;;7.00;6.00;;;;;33.31;31.02;101238.03;5017688;28;45199;-54
2022/05/16 11:04:04;;;;;;;;;7.25;6.00;;;;;33.53;29.20;101240.94;5037072;28;46224;-54
2022/05/16 11:06:44;;;;;;;;;7.75;7.25;;;;;33.47;29.62;101246.03;5018949;28;45324;-54
2022/05/16 11:09:30;;;;;;;;;7.00;6.00;;;;;34.31;28.96;101242.50;5036711;28;45276;-54
2022/05/16 11:12:04;;;;;;;;;6.25;6.25;;;;;35.61;28.20;101241.06;5021506;28;45277;-54
2022/05/16 11:14:40;;;;;;;;;7.00;7.00;;;;;36.93;26.38;101244.97;5023804;28;46342;-55
2022/05/16 11:17:16;;;;;;;;;6.75;5.00;;;;;38.18;26.29;101230.94;5036576;28;45233;-54
2022/05/16 11:20:10;;;;;;;;;5.50;5.50;;;;;39.08;24.54;101235.72;5030162;28;45508;-55
2022/05/16 11:22:41;;;;;;;;;8.75;6.00;;;;;39.45;23.29;101244.16;5031984;28;45359;-55
2022/05/16 11:25:16;;;;;;;;;7.75;6.00;;;;;40.11;23.22;101240.09;5022320;28;47472;-56
2022/05/16 11:27:49;;;;;;;;;7.00;6.50;;;;;40.79;21.98;101243.78;5027440;28;45391;-56
2022/05/16 11:30:25;;;;;;;;;9.00;9.00;;;;;41.09;22.03;101243.03;5027063;28;45383;-54
2022/05/16 11:33:05;;;;;;;;;17.00;15.75;;;;;41.14;21.14;101246.72;5027509;28;45473;-54
2022/05/16 11:35:34;;;;;;;;;4.75;4.25;;;;;41.63;21.00;101245.81;5034342;28;46042;-55
2022/05/16 11:37:59;;;;;;;;;4.00;4.00;;;;;42.24;21.09;101238.25;5030946;28;45296;-53
2022/05/16 11:40:50;;;;;;;;;6.00;4.25;;;;;42.64;19.84;101240.22;5032055;28;45984;-56
2022/05/16 11:43:24;;;;;;;;;4.50;4.00;;;;;42.93;19.12;101245.81;5037100;28;46183;-56
2022/05/16 11:46:01;;;;;;;;;4.50;3.00;;;;;43.05;18.51;101230.91;5037182;28;46376;-57
2022/05/16 11:48:49;;;;;;;;;6.50;6.50;;;;;43.29;19.40;101229.97;5038563;28;45596;-55
2022/05/16 11:51:25;;;;;;;;;21.00;18.25;;;;;42.76;19.07;101229.19;5039385;28;45522;-55
2022/05/16 11:53:53;;;;;;;;;8.75;6.50;;;;;41.46;19.35;101230.03;5038225;28;45407;-55
2022/05/16 12:02:30;;;;;;;;;4.00;2.75;;;;;39.68;19.81;101221.66;5031274;28;45471;-54
2022/05/16 12:05:01;;;;;;;;;2.67;2.67;;;;;39.09;20.50;101221.00;5025738;28;45368;-55